createdAt,value
2017-11-26T00:00:06.864Z,96.11
2017-11-26T00:01:12.552Z,96.05
2017-11-26T00:02:20.914Z,95.98
2017-11-26T00:03:27.073Z,95.89
2017-11-26T00:04:33.031Z,95.95
2017-11-26T00:05:39.812Z,95.95
2017-11-26T00:06:46.640Z,96.01
2017-11-26T00:07:52.567Z,95.79
2017-11-26T00:09:03.883Z,95.62
2017-11-26T00:10:09.964Z,95.95
2017-11-26T00:11:15.884Z,95.41
2017-11-26T00:12:22.032Z,95.27
2017-11-26T00:13:28.177Z,95.46
2017-11-26T00:14:34.302Z,95.49
2017-11-26T00:15:40.275Z,95.45
2017-11-26T00:16:50.525Z,95.49
2017-11-26T00:17:56.501Z,95.44
2017-11-26T00:19:02.658Z,95.27
2017-11-26T00:20:11.537Z,95.53
2017-11-26T00:21:17.696Z,95.45
2017-11-26T00:22:28.270Z,95.33
2017-11-26T00:23:34.587Z,94.90
2017-11-26T00:24:40.776Z,94.40
2017-11-26T00:25:46.978Z,94.57
2017-11-26T00:26:53.128Z,94.31
2017-11-26T00:27:59.425Z,94.49
2017-11-26T00:29:05.585Z,94.92
2017-11-26T00:30:11.744Z,95.08
2017-11-26T00:31:17.947Z,94.80
2017-11-26T00:32:24.769Z,94.74
2017-11-26T00:33:30.923Z,94.69
2017-11-26T00:34:37.094Z,94.91
2017-11-26T00:35:43.246Z,94.69
2017-11-26T00:36:50.296Z,94.40
2017-11-26T00:37:56.434Z,94.04
2017-11-26T00:39:03.490Z,93.81
2017-11-26T00:40:09.670Z,93.40
2017-11-26T00:41:15.786Z,93.31
2017-11-26T00:42:21.873Z,93.24
2017-11-26T00:43:27.892Z,93.45
2017-11-26T00:44:34.056Z,93.17
2017-11-26T00:45:40.210Z,92.91
2017-11-26T00:46:46.205Z,92.84
2017-11-26T00:47:52.409Z,93.16
2017-11-26T00:48:58.572Z,93.14
2017-11-26T00:50:04.431Z,92.58
2017-11-26T00:51:10.598Z,92.47
2017-11-26T00:52:18.887Z,92.27
2017-11-26T00:53:25.080Z,92.34
2017-11-26T00:54:31.177Z,93.19
2017-11-26T00:55:37.355Z,93.18
2017-11-26T00:56:43.584Z,92.93
2017-11-26T00:57:49.730Z,93.56
2017-11-26T00:58:55.898Z,93.88
2017-11-26T01:00:02.028Z,93.64
2017-11-26T01:01:07.988Z,93.19
2017-11-26T01:02:14.224Z,93.06
2017-11-26T01:03:20.386Z,92.80
2017-11-26T01:04:26.585Z,92.72
2017-11-26T01:05:32.538Z,92.80
2017-11-26T01:06:38.647Z,93.03
2017-11-26T01:07:44.892Z,93.24
2017-11-26T01:08:51.246Z,93.05
2017-11-26T01:09:57.347Z,93.00
2017-11-26T01:11:03.279Z,92.81
2017-11-26T01:12:09.417Z,92.57
2017-11-26T01:13:15.524Z,93.23
2017-11-26T01:14:21.463Z,93.33
2017-11-26T01:15:27.588Z,93.74
2017-11-26T01:16:33.769Z,93.84
2017-11-26T01:17:39.943Z,93.58
2017-11-26T01:18:46.114Z,93.60
2017-11-26T01:19:52.256Z,94.10
2017-11-26T01:20:58.451Z,93.93
2017-11-26T01:22:04.810Z,94.31
2017-11-26T01:23:10.917Z,94.25
2017-11-26T01:24:17.101Z,94.32
2017-11-26T01:25:23.354Z,94.55
2017-11-26T01:26:29.497Z,94.87
2017-11-26T01:27:35.714Z,95.00
2017-11-26T01:28:41.908Z,94.95
2017-11-26T01:29:48.086Z,94.67
2017-11-26T01:30:55.118Z,94.70
2017-11-26T01:32:01.253Z,94.70
2017-11-26T01:33:07.394Z,94.59
2017-11-26T01:34:13.704Z,94.90
2017-11-26T01:35:20.063Z,94.91
2017-11-26T01:36:26.368Z,94.55
2017-11-26T01:37:32.446Z,94.20
2017-11-26T01:38:38.588Z,94.36
2017-11-26T01:39:44.611Z,94.64
2017-11-26T01:40:50.973Z,94.51
2017-11-26T01:41:57.158Z,94.45
2017-11-26T01:43:03.308Z,94.79
2017-11-26T01:44:11.590Z,95.05
2017-11-26T01:45:18.054Z,95.02
2017-11-26T01:46:24.201Z,95.17
2017-11-26T01:47:30.131Z,95.49
2017-11-26T01:48:36.852Z,95.30
2017-11-26T01:49:43.188Z,95.16
2017-11-26T01:50:49.345Z,95.30
2017-11-26T01:51:55.428Z,94.80
2017-11-26T01:53:04.304Z,94.48
2017-11-26T01:54:10.453Z,94.40
2017-11-26T01:55:16.474Z,94.65
2017-11-26T01:56:22.425Z,94.81
2017-11-26T01:57:28.547Z,94.86
2017-11-26T01:58:34.340Z,94.18
2017-11-26T01:59:40.495Z,94.26
2017-11-26T02:00:45.806Z,94.38
2017-11-26T02:01:50.415Z,94.09
2017-11-26T02:02:58.009Z,93.94
2017-11-26T02:04:03.764Z,93.89
2017-11-26T02:05:11.545Z,93.73
2017-11-26T02:06:17.045Z,93.56
2017-11-26T02:07:24.873Z,94.33
2017-11-26T02:08:31.169Z,94.26
2017-11-26T02:09:37.097Z,93.84
2017-11-26T02:10:43.337Z,93.97
2017-11-26T02:11:51.307Z,94.16
2017-11-26T02:12:57.590Z,94.00
2017-11-26T02:14:07.919Z,93.89
2017-11-26T02:15:14.078Z,93.65
2017-11-26T02:16:20.321Z,93.68
2017-11-26T02:17:26.431Z,93.18
2017-11-26T02:18:32.220Z,93.01
2017-11-26T02:19:37.977Z,93.57
2017-11-26T02:20:43.420Z,93.45
2017-11-26T02:21:48.708Z,94.02
2017-11-26T02:22:53.973Z,93.88
2017-11-26T02:23:59.881Z,93.85
2017-11-26T02:25:09.305Z,93.93
2017-11-26T02:26:14.696Z,94.21
2017-11-26T02:27:20.272Z,94.12
2017-11-26T02:28:25.788Z,93.78
2017-11-26T02:29:31.286Z,93.63
2017-11-26T02:30:37.645Z,93.43
2017-11-26T02:31:54.833Z,93.18
2017-11-26T02:33:11.909Z,92.92
2017-11-26T02:34:28.809Z,93.13
2017-11-26T02:35:40.116Z,93.46
2017-11-26T02:36:45.449Z,93.37
2017-11-26T02:37:50.764Z,93.00
2017-11-26T02:38:56.472Z,92.75
2017-11-26T02:40:02.848Z,92.41
2017-11-26T02:41:08.758Z,92.77
2017-11-26T02:42:14.172Z,93.04
2017-11-26T02:43:19.747Z,93.05
2017-11-26T02:44:25.053Z,92.81
2017-11-26T02:45:30.854Z,92.80
2017-11-26T02:46:36.685Z,92.63
2017-11-26T02:47:45.342Z,92.46
2017-11-26T02:48:51.270Z,92.38
2017-11-26T02:49:58.766Z,92.98
2017-11-26T02:51:04.585Z,92.90
2017-11-26T02:52:10.439Z,92.66
2017-11-26T02:53:15.909Z,92.57
2017-11-26T02:54:21.347Z,92.73
2017-11-26T02:55:27.516Z,92.55
2017-11-26T02:56:33.317Z,92.55
2017-11-26T02:57:39.284Z,92.83
2017-11-26T02:58:44.798Z,92.52
2017-11-26T02:59:50.550Z,92.33
2017-11-26T03:00:57.267Z,92.11
2017-11-26T03:02:03.804Z,92.46
2017-11-26T03:03:10.079Z,92.79
2017-11-26T03:04:16.239Z,92.74
2017-11-26T03:05:22.180Z,92.94
2017-11-26T03:06:28.345Z,92.95
2017-11-26T03:07:34.415Z,92.94
2017-11-26T03:08:40.610Z,93.33
2017-11-26T03:09:52.726Z,93.24
2017-11-26T03:10:58.360Z,93.85
2017-11-26T03:12:04.326Z,93.77
2017-11-26T03:13:10.443Z,93.34
2017-11-26T03:14:16.463Z,93.66
2017-11-26T03:15:22.248Z,94.13
2017-11-26T03:16:28.419Z,94.32
2017-11-26T03:17:34.223Z,94.38
2017-11-26T03:18:39.727Z,94.49
2017-11-26T03:19:45.960Z,94.60
2017-11-26T03:20:52.139Z,94.84
2017-11-26T03:21:58.295Z,94.72
2017-11-26T03:23:04.495Z,94.98
2017-11-26T03:24:10.457Z,95.09
2017-11-26T03:25:16.225Z,95.10
2017-11-26T03:26:21.988Z,94.64
2017-11-26T03:27:33.991Z,94.34
2017-11-26T03:28:39.982Z,94.46
2017-11-26T03:29:45.936Z,94.78
2017-11-26T03:30:51.696Z,94.66
2017-11-26T03:31:57.867Z,94.39
2017-11-26T03:33:03.132Z,94.49
2017-11-26T03:34:08.885Z,94.56
2017-11-26T03:35:14.435Z,94.49
2017-11-26T03:36:20.726Z,94.37
2017-11-26T03:37:26.848Z,94.57
2017-11-26T03:38:32.804Z,94.25
2017-11-26T03:39:40.621Z,94.24
2017-11-26T03:40:46.542Z,94.29
2017-11-26T03:41:52.731Z,94.29
2017-11-26T03:42:58.636Z,94.30
2017-11-26T03:44:04.749Z,93.63
2017-11-26T03:45:10.745Z,93.80
2017-11-26T03:46:16.836Z,93.88
2017-11-26T03:47:23.114Z,93.81
2017-11-26T03:48:29.007Z,93.94
2017-11-26T03:49:35.196Z,94.20
2017-11-26T03:50:41.384Z,93.71
2017-11-26T03:51:47.532Z,93.83
2017-11-26T03:52:56.458Z,93.92
2017-11-26T03:54:02.660Z,93.95
2017-11-26T03:55:08.171Z,93.73
2017-11-26T03:56:13.479Z,93.71
2017-11-26T03:57:19.624Z,93.87
2017-11-26T03:58:25.850Z,93.82
2017-11-26T03:59:31.942Z,93.72
2017-11-26T04:00:38.043Z,93.75
2017-11-26T04:01:44.386Z,93.68
2017-11-26T04:02:50.518Z,93.65
2017-11-26T04:03:57.549Z,93.76
2017-11-26T04:05:03.639Z,93.87
2017-11-26T04:06:09.977Z,93.66
2017-11-26T04:07:16.087Z,93.16
2017-11-26T04:08:22.241Z,93.29
2017-11-26T04:09:28.362Z,93.74
2017-11-26T04:10:34.471Z,93.94
2017-11-26T04:11:40.579Z,93.64
2017-11-26T04:12:46.702Z,93.50
2017-11-26T04:13:52.820Z,93.58
2017-11-26T04:14:58.952Z,93.33
2017-11-26T04:16:04.428Z,92.81
2017-11-26T04:17:09.889Z,92.84
2017-11-26T04:18:16.085Z,93.19
2017-11-26T04:19:21.994Z,92.90
2017-11-26T04:20:28.126Z,92.59
2017-11-26T04:21:39.019Z,93.22
2017-11-26T04:22:44.983Z,93.42
2017-11-26T04:23:51.127Z,93.55
2017-11-26T04:24:57.256Z,93.69
2017-11-26T04:26:03.074Z,93.80
2017-11-26T04:27:08.842Z,93.69
2017-11-26T04:28:15.059Z,93.59
2017-11-26T04:29:20.900Z,93.56
2017-11-26T04:30:27.029Z,93.02
2017-11-26T04:31:39.430Z,93.32
2017-11-26T04:32:45.616Z,93.50
2017-11-26T04:33:51.772Z,93.80
2017-11-26T04:34:57.878Z,93.83
2017-11-26T04:36:03.331Z,93.88
2017-11-26T04:37:09.507Z,93.82
2017-11-26T04:38:15.596Z,93.84
2017-11-26T04:39:21.699Z,94.12
2017-11-26T04:40:27.958Z,94.40
2017-11-26T04:41:34.075Z,94.29
2017-11-26T04:42:40.255Z,94.28
2017-11-26T04:43:46.028Z,93.59
2017-11-26T04:44:54.316Z,93.86
2017-11-26T04:45:59.742Z,94.08
2017-11-26T04:47:05.205Z,93.89
2017-11-26T04:48:11.404Z,94.07
2017-11-26T04:49:21.389Z,93.81
2017-11-26T04:50:27.551Z,93.78
2017-11-26T04:51:33.761Z,93.75
2017-11-26T04:52:39.868Z,93.60
2017-11-26T04:53:45.851Z,93.54
2017-11-26T04:54:52.007Z,93.56
2017-11-26T04:56:01.852Z,93.82
2017-11-26T04:57:07.620Z,93.82
2017-11-26T04:58:13.579Z,93.95
2017-11-26T04:59:19.500Z,93.93
2017-11-26T05:00:24.944Z,93.97
2017-11-26T05:01:30.165Z,93.93
2017-11-26T05:02:35.460Z,94.05
2017-11-26T05:03:40.685Z,94.28
2017-11-26T05:04:46.164Z,94.30
2017-11-26T05:05:51.424Z,93.98
2017-11-26T05:06:57.600Z,93.79
2017-11-26T05:08:04.305Z,93.56
2017-11-26T05:09:10.527Z,92.94
2017-11-26T05:10:16.658Z,92.84
2017-11-26T05:11:22.774Z,92.84
2017-11-26T05:12:28.878Z,92.61
2017-11-26T05:13:35.059Z,92.90
2017-11-26T05:14:41.212Z,93.30
2017-11-26T05:15:47.366Z,93.11
2017-11-26T05:16:53.624Z,93.23
2017-11-26T05:17:59.868Z,93.03
2017-11-26T05:19:05.966Z,92.85
2017-11-26T05:20:12.150Z,92.54
2017-11-26T05:21:18.270Z,92.69
2017-11-26T05:22:24.439Z,92.86
2017-11-26T05:23:30.650Z,92.74
2017-11-26T05:24:36.738Z,92.32
2017-11-26T05:25:42.884Z,92.13
2017-11-26T05:26:49.026Z,92.05
2017-11-26T05:27:56.134Z,92.31
2017-11-26T05:29:03.191Z,92.75
2017-11-26T05:30:09.292Z,92.84
2017-11-26T05:31:21.533Z,93.05
2017-11-26T05:32:27.815Z,92.74
2017-11-26T05:33:33.952Z,92.58
2017-11-26T05:34:39.763Z,92.57
2017-11-26T05:35:46.809Z,92.59
2017-11-26T05:36:53.006Z,92.43
2017-11-26T05:37:59.000Z,92.54
2017-11-26T05:39:04.476Z,92.28
2017-11-26T05:40:10.476Z,92.41
2017-11-26T05:41:16.617Z,92.14
2017-11-26T05:42:22.529Z,92.17
2017-11-26T05:43:28.662Z,92.44
2017-11-26T05:44:34.832Z,92.28
2017-11-26T05:45:41.003Z,92.17
2017-11-26T05:46:47.175Z,92.60
2017-11-26T05:47:53.145Z,93.23
2017-11-26T05:48:58.907Z,93.16
2017-11-26T05:50:04.575Z,92.69
2017-11-26T05:51:10.491Z,92.19
2017-11-26T05:52:16.700Z,92.23
2017-11-26T05:53:22.887Z,91.74
2017-11-26T05:54:28.972Z,92.04
2017-11-26T05:55:35.141Z,91.75
2017-11-26T05:56:45.421Z,91.83
2017-11-26T05:57:56.572Z,92.02
2017-11-26T05:59:02.704Z,91.92
2017-11-26T06:00:08.177Z,91.73
2017-11-26T06:01:13.493Z,91.98
2017-11-26T06:02:19.678Z,92.33
2017-11-26T06:03:25.809Z,92.07
2017-11-26T06:04:31.920Z,92.12
2017-11-26T06:05:37.802Z,92.33
2017-11-26T06:06:43.947Z,91.93
2017-11-26T06:07:49.791Z,92.06
2017-11-26T06:08:56.025Z,92.39
2017-11-26T06:10:01.911Z,92.54
2017-11-26T06:11:08.090Z,92.29
2017-11-26T06:12:14.244Z,92.23
2017-11-26T06:13:20.409Z,92.29
2017-11-26T06:14:26.189Z,92.13
2017-11-26T06:15:32.365Z,91.88
2017-11-26T06:16:38.200Z,92.19
2017-11-26T06:17:44.382Z,92.32
2017-11-26T06:18:50.516Z,92.04
2017-11-26T06:19:56.437Z,92.06
2017-11-26T06:21:02.555Z,91.73
2017-11-26T06:22:08.597Z,91.79
2017-11-26T06:23:14.888Z,91.85
2017-11-26T06:24:21.022Z,92.11
2017-11-26T06:25:27.206Z,92.36
2017-11-26T06:26:33.362Z,92.09
2017-11-26T06:27:39.495Z,91.86
2017-11-26T06:28:45.645Z,92.02
2017-11-26T06:29:51.632Z,92.18
2017-11-26T06:30:57.757Z,92.13
2017-11-26T06:32:03.487Z,92.02
2017-11-26T06:33:09.611Z,91.82
2017-11-26T06:34:15.878Z,91.62
2017-11-26T06:35:21.806Z,91.64
2017-11-26T06:36:27.970Z,91.68
2017-11-26T06:37:34.180Z,92.13
2017-11-26T06:38:40.326Z,92.01
2017-11-26T06:39:45.756Z,91.81
2017-11-26T06:40:51.216Z,91.93
2017-11-26T06:41:57.354Z,92.02
2017-11-26T06:43:03.542Z,91.79
2017-11-26T06:44:09.517Z,91.55
2017-11-26T06:45:21.975Z,91.88
2017-11-26T06:46:27.637Z,91.84
2017-11-26T06:47:39.350Z,92.29
2017-11-26T06:48:45.891Z,92.62
2017-11-26T06:49:52.083Z,92.81
2017-11-26T06:50:58.247Z,92.41
2017-11-26T06:52:04.389Z,92.22
2017-11-26T06:53:10.547Z,91.95
2017-11-26T06:54:15.986Z,91.61
2017-11-26T06:55:21.969Z,91.53
2017-11-26T06:56:27.872Z,91.74
2017-11-26T06:57:33.801Z,91.66
2017-11-26T06:58:39.612Z,91.89
2017-11-26T06:59:45.763Z,91.57
2017-11-26T07:00:52.301Z,91.33
2017-11-26T07:01:59.032Z,91.63
2017-11-26T07:03:05.149Z,91.28
2017-11-26T07:04:11.326Z,91.17
2017-11-26T07:05:17.496Z,91.33
2017-11-26T07:06:23.386Z,91.19
2017-11-26T07:07:29.532Z,91.37
2017-11-26T07:08:35.696Z,91.08
2017-11-26T07:09:41.860Z,91.17
2017-11-26T07:10:48.213Z,91.38
2017-11-26T07:11:54.063Z,91.72
2017-11-26T07:13:05.908Z,91.48
2017-11-26T07:14:11.354Z,91.45
2017-11-26T07:15:17.835Z,91.42
2017-11-26T07:16:23.996Z,91.13
2017-11-26T07:17:35.862Z,91.38
2017-11-26T07:18:42.028Z,91.63
2017-11-26T07:19:48.132Z,91.27
2017-11-26T07:20:53.948Z,91.06
2017-11-26T07:21:59.748Z,91.30
2017-11-26T07:23:05.927Z,91.29
2017-11-26T07:24:12.040Z,90.86
2017-11-26T07:25:17.900Z,90.62
2017-11-26T07:26:24.879Z,90.46
2017-11-26T07:27:31.041Z,90.77
2017-11-26T07:28:37.155Z,90.60
2017-11-26T07:29:43.287Z,90.63
2017-11-26T07:30:49.618Z,90.85
2017-11-26T07:31:55.897Z,90.79
2017-11-26T07:33:02.198Z,90.54
2017-11-26T07:34:09.248Z,90.84
2017-11-26T07:35:18.112Z,90.36
2017-11-26T07:36:26.626Z,90.77
2017-11-26T07:37:32.931Z,90.59
2017-11-26T07:38:39.390Z,90.46
2017-11-26T07:39:46.197Z,90.25
2017-11-26T07:40:53.104Z,90.41
2017-11-26T07:42:00.547Z,90.18
2017-11-26T07:43:06.692Z,90.02
2017-11-26T07:44:13.991Z,89.97
2017-11-26T07:45:19.555Z,89.90
2017-11-26T07:46:26.470Z,90.02
2017-11-26T07:47:33.023Z,89.90
2017-11-26T07:48:39.452Z,89.65
2017-11-26T07:49:46.054Z,89.38
2017-11-26T07:50:52.551Z,89.42
2017-11-26T07:51:59.086Z,89.64
2017-11-26T07:53:05.218Z,89.71
2017-11-26T07:54:11.757Z,89.34
2017-11-26T07:55:18.612Z,89.13
2017-11-26T07:56:26.383Z,89.69
2017-11-26T07:57:33.220Z,89.91
2017-11-26T07:58:39.492Z,89.67
2017-11-26T07:59:45.701Z,89.75
2017-11-26T08:00:52.159Z,89.89
2017-11-26T08:01:58.572Z,89.56
2017-11-26T08:03:04.930Z,89.46
2017-11-26T08:04:11.107Z,89.16
2017-11-26T08:05:17.177Z,89.28
2017-11-26T08:06:23.823Z,89.58
2017-11-26T08:07:30.673Z,89.68
2017-11-26T08:08:36.907Z,89.31
2017-11-26T08:09:43.023Z,89.22
2017-11-26T08:10:50.021Z,89.04
2017-11-26T08:11:56.207Z,88.96
2017-11-26T08:13:02.416Z,88.86
2017-11-26T08:14:08.795Z,89.16
2017-11-26T08:15:14.978Z,89.04
2017-11-26T08:16:21.451Z,88.82
2017-11-26T08:17:27.794Z,89.28
2017-11-26T08:18:34.077Z,89.03
2017-11-26T08:19:40.274Z,89.02
2017-11-26T08:20:46.887Z,88.98
2017-11-26T08:21:53.232Z,88.96
2017-11-26T08:22:59.546Z,88.39
2017-11-26T08:24:05.806Z,88.01
2017-11-26T08:25:12.421Z,87.58
2017-11-26T08:26:18.594Z,87.65
2017-11-26T08:27:24.970Z,87.25
2017-11-26T08:28:31.700Z,87.13
2017-11-26T08:29:38.430Z,86.92
2017-11-26T08:30:44.854Z,86.70
2017-11-26T08:31:50.992Z,86.70
2017-11-26T08:32:57.228Z,86.88
2017-11-26T08:34:03.607Z,86.79
2017-11-26T08:35:09.789Z,86.64
2017-11-26T08:36:15.984Z,86.39
2017-11-26T08:37:22.170Z,86.35
2017-11-26T08:38:33.617Z,85.97
2017-11-26T08:39:39.931Z,85.67
2017-11-26T08:40:46.592Z,85.87
2017-11-26T08:41:52.903Z,86.01
2017-11-26T08:42:58.964Z,86.26
2017-11-26T08:44:05.019Z,85.49
2017-11-26T08:45:10.982Z,85.26
2017-11-26T08:46:17.171Z,85.57
2017-11-26T08:47:23.325Z,85.70
2017-11-26T08:48:29.963Z,85.68
2017-11-26T08:49:36.242Z,85.69
2017-11-26T08:50:48.757Z,85.51
2017-11-26T08:51:54.826Z,85.46
2017-11-26T08:53:05.881Z,85.08
2017-11-26T08:54:11.945Z,85.27
2017-11-26T08:55:17.931Z,85.69
2017-11-26T08:56:24.040Z,85.34
2017-11-26T08:57:30.012Z,85.21
2017-11-26T08:58:35.997Z,85.38
2017-11-26T08:59:42.271Z,85.25
2017-11-26T09:00:49.212Z,85.60
2017-11-26T09:01:56.396Z,85.67
2017-11-26T09:03:03.869Z,85.40
2017-11-26T09:04:10.609Z,85.68
2017-11-26T09:06:37.088Z,85.41
2017-11-26T09:07:55.810Z,85.38
2017-11-26T09:09:03.943Z,85.27
2017-11-26T09:10:10.748Z,85.00
2017-11-26T09:11:18.426Z,85.00
2017-11-26T09:12:25.198Z,84.56
2017-11-26T09:13:32.794Z,84.30
2017-11-26T09:14:39.889Z,84.19
2017-11-26T09:15:46.388Z,83.70
2017-11-26T09:16:53.193Z,83.98
2017-11-26T09:18:00.089Z,84.05
2017-11-26T09:19:08.591Z,84.18
2017-11-26T09:20:16.290Z,84.24
2017-11-26T09:21:23.654Z,84.60
2017-11-26T09:22:30.547Z,84.50
2017-11-26T09:23:37.055Z,84.46
2017-11-26T09:24:43.504Z,84.42
2017-11-26T09:25:49.876Z,84.46
2017-11-26T09:26:57.219Z,84.16
2017-11-26T09:28:03.221Z,84.36
2017-11-26T09:29:09.712Z,84.91
2017-11-26T09:30:16.377Z,84.63
2017-11-26T09:31:22.997Z,84.18
2017-11-26T09:32:29.386Z,83.97
2017-11-26T09:33:35.368Z,84.00
2017-11-26T09:34:41.506Z,83.61
2017-11-26T09:35:47.670Z,83.28
2017-11-26T09:36:53.760Z,83.27
2017-11-26T09:37:59.816Z,83.11
2017-11-26T09:39:05.627Z,82.90
2017-11-26T09:40:12.076Z,82.43
2017-11-26T09:41:18.516Z,82.49
2017-11-26T09:42:24.686Z,82.58
2017-11-26T09:43:30.409Z,82.80
2017-11-26T09:44:36.567Z,82.45
2017-11-26T09:45:42.301Z,82.80
2017-11-26T09:46:48.124Z,82.15
2017-11-26T09:47:54.060Z,81.49
2017-11-26T09:49:00.331Z,81.36
2017-11-26T09:50:06.459Z,81.39
2017-11-26T09:51:12.600Z,81.53
2017-11-26T09:52:18.725Z,81.46
2017-11-26T09:53:24.815Z,81.02
2017-11-26T09:54:30.897Z,81.02
2017-11-26T09:55:37.035Z,80.88
2017-11-26T09:56:43.159Z,80.82
2017-11-26T09:57:49.322Z,80.63
2017-11-26T09:58:55.410Z,80.66
2017-11-26T10:00:01.605Z,80.55
2017-11-26T10:01:07.494Z,80.31
2017-11-26T10:02:13.660Z,80.49
2017-11-26T10:03:19.772Z,80.53
2017-11-26T10:04:25.936Z,80.24
2017-11-26T10:05:31.881Z,80.14
2017-11-26T10:06:38.027Z,80.46
2017-11-26T10:07:44.189Z,81.15
2017-11-26T10:08:50.680Z,81.17
2017-11-26T10:09:56.854Z,81.29
2017-11-26T10:11:02.788Z,80.64
2017-11-26T10:12:08.935Z,80.62
2017-11-26T10:13:14.872Z,80.38
2017-11-26T10:14:21.050Z,80.37
2017-11-26T10:15:27.171Z,80.35
2017-11-26T10:16:33.272Z,80.52
2017-11-26T10:17:39.430Z,80.64
2017-11-26T10:18:45.582Z,80.70
2017-11-26T10:19:51.783Z,80.44
2017-11-26T10:20:57.906Z,80.05
2017-11-26T10:22:04.021Z,80.10
2017-11-26T10:23:10.138Z,79.89
2017-11-26T10:24:16.279Z,79.58
2017-11-26T10:25:23.135Z,79.02
2017-11-26T10:26:30.208Z,78.47
2017-11-26T10:27:37.484Z,78.32
2017-11-26T10:28:44.046Z,78.24
2017-11-26T10:29:51.155Z,78.35
2017-11-26T10:30:58.593Z,78.48
2017-11-26T10:32:05.448Z,78.03
2017-11-26T10:33:12.680Z,78.34
2017-11-26T10:34:20.459Z,78.27
2017-11-26T10:35:27.761Z,78.98
2017-11-26T10:36:34.362Z,78.57
2017-11-26T10:37:41.062Z,78.76
2017-11-26T10:38:48.647Z,79.22
2017-11-26T10:39:56.055Z,78.54
2017-11-26T10:41:02.812Z,79.24
2017-11-26T10:42:10.648Z,79.53
2017-11-26T10:43:17.268Z,79.63
2017-11-26T10:44:23.636Z,79.40
2017-11-26T10:45:30.291Z,79.19
2017-11-26T10:46:36.433Z,79.84
2017-11-26T10:47:41.754Z,79.88
2017-11-26T10:48:47.346Z,79.93
2017-11-26T10:49:52.884Z,80.13
2017-11-26T10:50:59.123Z,80.10
2017-11-26T10:52:05.981Z,79.32
2017-11-26T10:53:13.211Z,79.37
2017-11-26T10:54:20.292Z,79.31
2017-11-26T10:55:26.431Z,79.25
2017-11-26T10:56:33.703Z,79.30
2017-11-26T10:57:40.752Z,79.27
2017-11-26T10:58:47.000Z,78.78
2017-11-26T10:59:52.801Z,78.83
2017-11-26T11:00:58.244Z,78.52
2017-11-26T11:02:05.315Z,78.10
2017-11-26T11:03:12.172Z,77.89
2017-11-26T11:04:19.288Z,77.66
2017-11-26T11:05:25.314Z,77.91
2017-11-26T11:06:32.505Z,78.26
2017-11-26T11:07:39.453Z,78.27
2017-11-26T11:08:47.614Z,78.20
2017-11-26T11:09:54.429Z,78.40
2017-11-26T11:11:00.839Z,78.60
2017-11-26T11:12:07.331Z,78.60
2017-11-26T11:13:12.845Z,78.55
2017-11-26T11:14:18.358Z,78.71
2017-11-26T11:15:23.887Z,79.13
2017-11-26T11:16:36.238Z,79.46
2017-11-26T11:17:42.053Z,79.32
2017-11-26T11:18:47.972Z,79.38
2017-11-26T11:19:53.622Z,79.49
2017-11-26T11:21:03.586Z,79.55
2017-11-26T11:22:09.750Z,79.53
2017-11-26T11:23:15.222Z,79.44
2017-11-26T11:24:21.048Z,79.29
2017-11-26T11:25:26.918Z,78.70
2017-11-26T11:26:33.102Z,78.97
2017-11-26T11:27:39.424Z,78.77
2017-11-26T11:28:45.591Z,78.50
2017-11-26T11:29:51.544Z,78.63
2017-11-26T11:30:57.665Z,78.63
2017-11-26T11:32:03.815Z,78.78
2017-11-26T11:33:11.094Z,78.13
2017-11-26T11:34:17.253Z,78.15
2017-11-26T11:35:23.061Z,77.81
2017-11-26T11:36:28.989Z,78.29
2017-11-26T11:37:35.113Z,79.01
2017-11-26T11:38:41.314Z,79.15
2017-11-26T11:39:47.557Z,79.37
2017-11-26T11:40:53.759Z,79.08
2017-11-26T11:41:59.921Z,78.97
2017-11-26T11:43:06.052Z,78.71
2017-11-26T11:44:12.203Z,78.62
2017-11-26T11:45:18.401Z,78.59
2017-11-26T11:46:24.584Z,78.15
2017-11-26T11:47:30.692Z,78.16
2017-11-26T11:48:36.910Z,77.56
2017-11-26T11:49:43.081Z,77.83
2017-11-26T11:50:49.030Z,77.31
2017-11-26T11:51:54.072Z,76.96
2017-11-26T11:52:59.597Z,77.45
2017-11-26T11:54:05.151Z,77.19
2017-11-26T11:55:10.484Z,77.21
2017-11-26T11:56:15.788Z,76.77
2017-11-26T11:57:23.172Z,76.45
2017-11-26T11:58:29.502Z,76.46
2017-11-26T11:59:37.047Z,76.06
2017-11-26T12:00:44.560Z,76.97
2017-11-26T12:01:51.677Z,77.28
2017-11-26T12:03:02.373Z,77.06
2017-11-26T12:04:08.693Z,77.41
2017-11-26T12:05:14.880Z,76.98
2017-11-26T12:06:20.909Z,77.56
2017-11-26T12:07:26.712Z,77.62
2017-11-26T12:08:32.606Z,77.12
2017-11-26T12:09:39.166Z,77.29
2017-11-26T12:10:44.768Z,76.67
2017-11-26T12:11:51.814Z,76.98
2017-11-26T12:12:57.669Z,77.31
2017-11-26T12:14:09.466Z,77.36
2017-11-26T12:15:15.845Z,77.82
2017-11-26T12:16:22.449Z,77.55
2017-11-26T12:17:28.661Z,77.62
2017-11-26T12:18:34.962Z,77.07
2017-11-26T12:19:41.453Z,77.11
2017-11-26T12:20:47.343Z,77.10
2017-11-26T12:21:53.865Z,76.81
2017-11-26T12:23:00.242Z,76.73
2017-11-26T12:24:05.623Z,76.46
2017-11-26T12:25:12.169Z,77.00
2017-11-26T12:26:18.267Z,77.31
2017-11-26T12:27:23.927Z,77.23
2017-11-26T12:28:30.950Z,77.47
2017-11-26T12:29:36.876Z,77.86
2017-11-26T12:30:43.269Z,77.51
2017-11-26T12:31:49.072Z,77.32
2017-11-26T12:32:56.177Z,77.62
2017-11-26T12:34:02.855Z,77.75
2017-11-26T12:35:08.779Z,77.21
2017-11-26T12:36:15.408Z,77.24
2017-11-26T12:37:21.847Z,77.57
2017-11-26T12:38:28.349Z,77.50
2017-11-26T12:39:34.997Z,77.37
2017-11-26T12:40:41.981Z,77.79
2017-11-26T12:41:48.092Z,77.67
2017-11-26T12:42:54.143Z,77.75
2017-11-26T12:44:00.787Z,77.95
2017-11-26T12:45:06.625Z,78.36
2017-11-26T12:46:12.989Z,78.29
2017-11-26T12:47:18.458Z,78.15
2017-11-26T12:48:24.357Z,78.40
2017-11-26T12:49:30.072Z,78.43
2017-11-26T12:50:35.603Z,78.13
2017-11-26T12:51:41.729Z,77.73
2017-11-26T12:52:53.651Z,77.92
2017-11-26T12:53:59.745Z,78.38
2017-11-26T12:55:05.656Z,78.53
2017-11-26T12:56:12.526Z,78.66
2017-11-26T12:57:18.417Z,78.63
2017-11-26T12:58:24.171Z,78.53
2017-11-26T12:59:31.515Z,78.30
2017-11-26T13:00:38.360Z,78.50
2017-11-26T13:01:44.344Z,78.70
2017-11-26T13:02:51.114Z,78.54
2017-11-26T13:03:57.307Z,78.80
2017-11-26T13:05:03.399Z,78.91
2017-11-26T13:06:11.247Z,78.59
2017-11-26T13:07:17.299Z,78.58
2017-11-26T13:08:29.407Z,78.47
2017-11-26T13:09:47.408Z,78.26
2017-11-26T13:10:55.176Z,78.14
2017-11-26T13:12:00.514Z,78.38
2017-11-26T13:13:06.159Z,77.72
2017-11-26T13:14:11.521Z,77.61
2017-11-26T13:15:17.845Z,77.43
2017-11-26T13:16:24.554Z,77.57
2017-11-26T13:17:30.598Z,77.81
2017-11-26T13:18:36.182Z,77.77
2017-11-26T13:19:41.903Z,78.05
2017-11-26T13:20:48.080Z,78.29
2017-11-26T13:21:53.632Z,78.29
2017-11-26T13:22:58.749Z,78.20
2017-11-26T13:24:04.286Z,78.12
2017-11-26T13:25:11.737Z,78.09
2017-11-26T13:26:17.988Z,78.08
2017-11-26T13:27:23.437Z,78.38
2017-11-26T13:28:29.240Z,78.75
2017-11-26T13:29:34.712Z,78.44
2017-11-26T13:30:40.333Z,78.70
2017-11-26T13:31:45.595Z,78.64
2017-11-26T13:32:51.050Z,78.50
2017-11-26T13:34:02.252Z,78.28
2017-11-26T13:35:07.503Z,78.46
2017-11-26T13:36:12.788Z,78.06
2017-11-26T13:37:18.074Z,78.89
2017-11-26T13:38:23.389Z,79.28
2017-11-26T13:39:28.691Z,79.45
2017-11-26T13:40:33.992Z,79.34
2017-11-26T13:41:39.279Z,79.66
2017-11-26T13:42:44.712Z,79.60
2017-11-26T13:43:50.737Z,79.49
2017-11-26T13:44:56.044Z,79.23
2017-11-26T13:46:02.448Z,79.61
2017-11-26T13:47:08.138Z,79.49
2017-11-26T13:48:17.774Z,79.20
2017-11-26T13:49:23.072Z,79.61
2017-11-26T13:50:28.401Z,79.41
2017-11-26T13:51:35.751Z,79.75
2017-11-26T13:52:41.309Z,79.74
2017-11-26T13:53:46.763Z,79.62
2017-11-26T13:54:52.187Z,79.58
2017-11-26T13:55:58.424Z,79.53
2017-11-26T13:57:03.717Z,79.65
2017-11-26T13:58:09.280Z,79.68
2017-11-26T13:59:14.755Z,79.33
2017-11-26T14:00:21.332Z,79.46
2017-11-26T14:01:26.635Z,79.01
2017-11-26T14:02:31.953Z,78.68
2017-11-26T14:03:40.629Z,78.92
2017-11-26T14:04:50.468Z,79.36
2017-11-26T14:05:55.909Z,79.29
2017-11-26T14:07:01.498Z,79.63
2017-11-26T14:08:06.756Z,79.62
2017-11-26T14:09:12.891Z,79.39
2017-11-26T14:10:18.197Z,79.69
2017-11-26T14:11:24.071Z,79.11
2017-11-26T14:12:29.367Z,78.59
2017-11-26T14:13:34.892Z,78.75
2017-11-26T14:14:40.189Z,78.24
2017-11-26T14:15:45.463Z,78.28
2017-11-26T14:16:50.801Z,78.47